首页
METAR-TAF:

METAR-TAF

机场 :

苏丹阿都哈林机场

亚罗士打, 马来西亚

纬度: 06-11-40N, 经度: 100-24-03E, 海拔: 5米

当前天气观测

该预报发布于49分钟前的14:00 UTC
静风
温度 26°C
湿度 89%
气压 1010 hPa
能见度10公里或以上
散云层高于3000英尺

METAR: WMKA 171400Z 00000KT 9999 SCT030 26/24 Q1010

时间: 22:49 (14:49 UTC)

预报

该预报发布于3小时和49分钟前的11:00 UTC
预报有效从17日的 12点(UTC)到 18日的 12点(UTC)
风速3节,风向多变
能见度10公里或以上
少量云层高于2800英尺
几率 30% :
短暂存在
从 17日的 22点(UTC)到 18日的 03点(UTC)
能見度: 6000
少量云层高于1000英尺
少量云层高于1700英尺, 积雨云.
雷暴, 雨
成为
从 18日的 02点(UTC)到 18日的 04点(UTC)
风速6节,风向西
少量云层高于2000英尺

TAF: WMKA 171100Z 1712/1812 VRB03KT 9999 FEW028 PROB30 TEMPO 1722/1803 6000 TSRA FEW010 FEW017CB BECMG 1802/1804 27006KT FEW020

超过4000个机场的气象观测和天气预报(METAR&TAF报告)。

可查询的气象台以黄色和红色小点在地图上表示。

将鼠标移到小点上方,可查看气象台名称。

然后点击查看天气观测和预报。

如需切换地图:点击带黑十字的绿色按钮放大地图;点击带横线的绿色按钮缩小地图;或者点击绿色箭头查看邻近地区的地图。


METAR-TAF: